Time;durP1;ratioP1;P1;durP2;ratioP2;P2;SDS_P1;SDS_P2;PMS_P1;PMS_P2;Temp;Humidity;BMP_temperature;BMP_pressure;BME280_temperature;BME280_humidity;BME280_pressure;Samples;Min_cycle;Max_cycle;Signal;HPM_P1;HPM_P2
2022/01/10 00:01:46;;;;;;;17.07;12.03;;;;;;;0.97;72.43;98591.87;1773250;80;21084;-39
2022/01/10 00:04:12;;;;;;;17.98;12.70;;;;;;;0.91;72.49;98589.11;1763924;80;20953;-39
2022/01/10 00:06:39;;;;;;;16.20;11.60;;;;;;;0.86;72.66;98599.40;1778896;80;21830;-39
2022/01/10 00:09:08;;;;;;;16.27;11.73;;;;;;;0.88;72.64;98598.52;1744749;82;21029;-38
2022/01/10 00:11:35;;;;;;;15.45;11.55;;;;;;;0.86;72.60;98606.86;1740201;82;21142;-38
2022/01/10 00:14:02;;;;;;;16.60;11.90;;;;;;;0.94;72.80;98607.16;1759901;80;21021;-38
2022/01/10 00:16:30;;;;;;;13.68;10.05;;;;;;;1.05;72.55;98605.20;1773468;80;20973;-38
2022/01/10 00:18:57;;;;;;;10.90;8.30;;;;;;;1.08;72.31;98609.90;1776102;80;21848;-38
2022/01/10 00:21:23;;;;;;;14.35;10.00;;;;;;;1.02;71.96;98611.15;1775703;80;21068;-38
2022/01/10 00:23:50;;;;;;;13.88;9.90;;;;;;;0.95;71.89;98624.20;1782214;80;21557;-38
2022/01/10 00:26:17;;;;;;;13.28;9.68;;;;;;;0.88;71.85;98625.98;1774684;80;20996;-38
2022/01/10 00:28:44;;;;;;;13.55;9.43;;;;;;;0.82;72.11;98621.14;1772296;80;21488;-39
2022/01/10 00:31:11;;;;;;;12.75;9.33;;;;;;;0.85;72.24;98624.50;1761463;80;21013;-38
2022/01/10 00:33:39;;;;;;;12.85;9.13;;;;;;;0.91;72.04;98629.14;1776734;80;21044;-39
2022/01/10 00:36:06;;;;;;;10.80;8.58;;;;;;;0.88;72.08;98627.87;1772900;80;22226;-38
2022/01/10 00:38:33;;;;;;;12.75;8.30;;;;;;;0.86;72.07;98626.08;1782046;80;20961;-39
2022/01/10 00:41:01;;;;;;;12.13;9.13;;;;;;;0.83;72.05;98622.14;1781872;80;20981;-38
2022/01/10 00:43:33;;;;;;;12.47;8.80;;;;;;;0.84;72.06;98620.26;1782038;80;21013;-38
2022/01/10 00:46:00;;;;;;;11.45;8.43;;;;;;;0.82;72.01;98617.14;1780705;80;21586;-38
2022/01/10 00:48:27;;;;;;;10.70;8.20;;;;;;;0.83;72.03;98618.68;1781150;80;21159;-39
2022/01/10 00:50:53;;;;;;;12.68;8.73;;;;;;;0.87;72.09;98613.73;1779752;80;20973;-39
2022/01/10 00:53:20;;;;;;;10.72;8.50;;;;;;;0.94;71.92;98606.61;1744933;82;21028;-39
2022/01/10 00:55:46;;;;;;;10.93;8.40;;;;;;;0.96;71.83;98615.09;1781377;80;21447;-39
2022/01/10 00:58:14;;;;;;;11.20;8.70;;;;;;;0.97;71.92;98607.88;1773288;80;21506;-39
2022/01/10 01:00:40;;;;;;;12.50;9.90;;;;;;;0.99;71.92;98618.46;1773745;80;21106;-39
2022/01/10 01:03:08;;;;;;;15.45;9.75;;;;;;;1.04;71.76;98616.18;1772006;80;21089;-39
2022/01/10 01:05:39;;;;;;;11.85;9.13;;;;;;;1.04;71.65;98614.30;1745025;80;20980;-38
2022/01/10 01:08:07;;;;;;;13.28;9.68;;;;;;;1.02;71.56;98616.48;1766070;80;21045;-39
2022/01/10 01:11:00;;;;;;;11.22;7.87;;;;;;;0.97;71.34;98609.97;1752141;80;21080;-38
2022/01/10 01:13:23;;;;;;;13.45;10.32;;;;;;;0.91;71.51;98616.59;1769756;80;22328;-38
2022/01/10 01:16:08;;;;;;;13.35;10.18;;;;;;;0.88;71.60;98613.98;1766663;80;20997;-38
2022/01/10 01:25:57;;;;;;;13.88;10.48;;;;;;;0.99;71.61;98635.81;1761629;80;21137;-38
2022/01/10 01:28:23;;;;;;;13.48;9.65;;;;;;;0.96;71.42;98637.78;1761135;80;20957;-38
2022/01/10 01:30:50;;;;;;;13.60;9.38;;;;;;;0.87;71.42;98633.75;1768927;80;21494;-39
2022/01/10 01:33:18;;;;;;;13.58;9.70;;;;;;;0.76;71.19;98631.72;1768701;80;21684;-38
2022/01/10 01:35:45;;;;;;;13.20;9.13;;;;;;;0.66;71.40;98633.35;1766179;80;21049;-38
2022/01/10 01:38:12;;;;;;;15.05;10.08;;;;;;;0.58;71.67;98632.80;1757478;80;21145;-38
2022/01/10 01:40:52;;;;;;;12.45;9.50;;;;;;;0.49;71.72;98640.76;1765441;80;20940;-38
2022/01/10 01:43:10;;;;;;;13.90;9.85;;;;;;;0.43;71.95;98642.81;1745341;80;21047;-38
2022/01/10 01:45:46;;;;;;;13.08;9.98;;;;;;;0.42;72.18;98642.56;1773385;80;20976;-38
2022/01/10 01:48:13;;;;;;;13.35;10.05;;;;;;;0.44;72.32;98643.02;1771401;80;21641;-38
2022/01/10 01:50:40;;;;;;;14.20;9.95;;;;;;;0.45;72.26;98645.14;1773044;80;21122;-38
2022/01/10 01:53:08;;;;;;;13.53;10.15;;;;;;;0.44;72.43;98645.69;1774038;80;21008;-38
2022/01/10 01:55:37;;;;;;;13.53;9.60;;;;;;;0.41;72.27;98647.66;1773325;80;21040;-39
2022/01/10 01:58:04;;;;;;;13.30;9.73;;;;;;;0.35;72.49;98648.88;1725758;80;21009;-39
2022/01/10 02:00:32;;;;;;;11.57;8.90;;;;;;;0.37;72.46;98649.92;1770316;80;21006;-39
2022/01/10 02:02:59;;;;;;;15.55;10.23;;;;;;;0.37;72.39;98649.92;1769250;80;21948;-39
2022/01/10 02:05:28;;;;;;;11.05;9.28;;;;;;;0.38;72.32;98651.49;1764867;80;21629;-38
2022/01/10 02:07:55;;;;;;;13.25;9.20;;;;;;;0.39;72.30;98655.16;1773719;80;20914;-39
2022/01/10 02:10:22;;;;;;;11.50;8.55;;;;;;;0.41;72.10;98655.66;1773644;80;20902;-38
2022/01/10 02:12:49;;;;;;;11.88;8.85;;;;;;;0.43;72.07;98649.47;1766502;80;21041;-38
2022/01/10 02:15:57;;;;;;;12.43;8.88;;;;;;;0.42;71.73;98661.23;1761042;80;21484;-38
2022/01/10 02:18:20;;;;;;;11.97;8.68;;;;;;;0.36;71.82;98663.79;1760122;80;20946;-39
2022/01/10 02:20:49;;;;;;;12.73;9.08;;;;;;;0.30;71.97;98675.69;1751518;80;21390;-39
2022/01/10 02:23:17;;;;;;;13.30;8.83;;;;;;;0.00;72.12;98644.55;1702145;84;20978;-39
2022/01/10 02:25:58;;;;;;;12.75;9.25;;;;;;;0.16;72.33;98675.00;1703023;82;21042;-40
2022/01/10 02:28:26;;;;;;;13.32;8.38;;;;;;;0.11;72.67;98673.80;1773102;80;21961;-40
2022/01/10 02:30:57;;;;;;;12.33;9.28;;;;;;;0.11;72.72;98675.68;1771949;80;21090;-40
2022/01/10 02:33:28;;;;;;;13.65;9.58;;;;;;;0.10;72.90;98682.89;1745506;80;20953;-39
2022/01/10 02:38:58;;;;;;;12.40;9.48;;;;;;;0.16;72.94;98684.88;1773986;80;21116;-39
2022/01/10 02:41:33;;;;;;;13.20;9.88;;;;;;;0.16;73.00;98693.66;1772919;80;21169;-39
2022/01/10 02:44:04;;;;;;;11.97;9.00;;;;;;;0.22;73.11;98700.98;1752111;80;20910;-39
2022/01/10 02:46:33;;;;;;;12.85;8.80;;;;;;;0.30;73.01;98698.89;1770740;80;21010;-39
2022/01/10 02:49:00;;;;;;;13.93;10.10;;;;;;;0.35;72.74;98701.42;1750753;80;21040;-39
2022/01/10 02:51:27;;;;;;;10.75;8.30;;;;;;;0.35;72.64;98704.87;1772134;80;21657;-39
2022/01/10 02:53:54;;;;;;;14.68;10.18;;;;;;;0.34;72.34;98711.29;1751214;80;21637;-39
2022/01/10 02:56:20;;;;;;;13.72;9.90;;;;;;;0.32;72.43;98716.16;1760947;80;21025;-40
2022/01/10 02:58:48;;;;;;;13.28;9.80;;;;;;;0.33;72.46;98718.28;1750642;80;21010;-39
2022/01/10 03:01:14;;;;;;;11.85;8.48;;;;;;;0.34;72.54;98719.29;1772461;80;21562;-39
2022/01/10 03:03:41;;;;;;;12.65;7.85;;;;;;;0.37;72.43;98718.69;1770917;80;21272;-39
2022/01/10 03:06:08;;;;;;;11.03;7.95;;;;;;;0.41;72.08;98722.86;1769004;80;21112;-39
2022/01/10 03:08:35;;;;;;;10.32;7.72;;;;;;;0.38;71.79;98718.94;1773435;80;21009;-40
2022/01/10 03:11:04;;;;;;;10.43;7.83;;;;;;;0.39;71.85;98719.70;1769144;80;21096;-39
2022/01/10 03:13:32;;;;;;;10.20;7.87;;;;;;;0.44;71.78;98723.02;1736797;82;20926;-40
2022/01/10 03:15:59;;;;;;;11.93;8.20;;;;;;;0.51;71.65;98731.13;1769271;80;21033;-39
2022/01/10 03:18:26;;;;;;;13.75;9.10;;;;;;;0.54;71.44;98735.29;1763344;80;21155;-39
2022/01/10 03:20:52;;;;;;;11.57;8.68;;;;;;;0.53;71.41;98736.41;1746641;80;21497;-40
2022/01/10 03:23:19;;;;;;;13.22;9.08;;;;;;;0.54;71.29;98741.95;1740938;80;21055;-40
2022/01/10 03:25:46;;;;;;;12.63;8.88;;;;;;;0.54;71.28;98746.50;1773478;80;21014;-39
2022/01/10 03:28:15;;;;;;;14.13;9.35;;;;;;;0.50;71.29;98747.67;1773977;80;20998;-39
2022/01/10 03:30:42;;;;;;;12.10;8.08;;;;;;;0.54;71.37;98750.50;1764939;80;21950;-40
2022/01/10 03:33:08;;;;;;;13.35;8.98;;;;;;;0.58;71.33;98748.81;1773640;80;21009;-40
2022/01/10 03:35:37;;;;;;;13.80;9.35;;;;;;;0.61;70.93;98749.52;1755930;80;20945;-40
2022/01/10 03:38:05;;;;;;;15.18;10.10;;;;;;;0.55;70.75;98754.20;1773963;80;21092;-39
2022/01/10 03:40:33;;;;;;;13.28;9.33;;;;;;;0.47;70.59;98753.63;1767122;80;21009;-39
2022/01/10 03:43:02;;;;;;;15.03;9.40;;;;;;;0.41;70.81;98758.85;1739519;80;21955;-39
2022/01/10 03:45:29;;;;;;;12.82;8.70;;;;;;;0.40;70.49;98762.61;1750168;80;21448;-40
2022/01/10 03:47:55;;;;;;;15.25;10.28;;;;;;;0.33;70.56;98757.73;1773898;80;21016;-39
2022/01/10 03:50:23;;;;;;;15.83;10.53;;;;;;;0.28;70.49;98762.41;1773677;80;21317;-39
2022/01/10 03:52:50;;;;;;;15.28;10.90;;;;;;;0.21;70.61;98766.83;1773953;80;21037;-40
2022/01/10 03:55:17;;;;;;;15.03;10.65;;;;;;;0.19;70.72;98766.37;1757764;80;21127;-39
2022/01/10 03:57:43;;;;;;;16.67;11.35;;;;;;;0.15;70.83;98760.59;1772461;80;21582;-40
2022/01/10 04:00:11;;;;;;;17.42;11.40;;;;;;;0.16;71.06;98766.16;1773327;80;21047;-39
2022/01/10 04:02:52;;;;;;;16.40;11.05;;;;;;;0.19;71.09;98769.03;1773856;80;21534;-39
2022/01/10 04:05:14;;;;;;;14.80;9.67;;;;;;;0.19;71.15;98770.36;1772298;80;21006;-40
2022/01/10 04:07:42;;;;;;;16.42;9.85;;;;;;;0.20;71.21;98778.58;1756325;80;21127;-39
2022/01/10 04:12:52;;;;;;;18.10;11.18;;;;;;;0.32;70.80;98780.14;1813285;78;22882;-39
2022/01/10 04:15:19;;;;;;;16.02;11.15;;;;;;;0.22;70.85;98784.41;1785283;79;21550;-38
2022/01/10 04:17:52;;;;;;;18.62;12.20;;;;;;;0.27;70.80;98786.94;1774010;78;21492;-38
2022/01/10 04:20:14;;;;;;;18.62;11.78;;;;;;;0.29;70.61;98790.07;1784261;78;20934;-38
2022/01/10 04:22:41;;;;;;;19.32;11.80;;;;;;;0.32;70.66;98790.81;1784574;80;21534;-38
2022/01/10 04:25:10;;;;;;;19.32;12.25;;;;;;;0.34;70.46;98800.61;1783346;78;21496;-38
2022/01/10 04:27:38;;;;;;;20.72;13.48;;;;;;;0.32;70.61;98801.47;1759838;80;20994;-38
2022/01/10 04:30:07;;;;;;;19.87;12.80;;;;;;;0.31;70.41;98805.23;1786290;79;21131;-38
2022/01/10 04:32:34;;;;;;;20.33;12.03;;;;;;;0.27;70.54;98807.48;1806535;79;20966;-38
2022/01/10 04:35:02;;;;;;;16.67;10.85;;;;;;;0.24;70.51;98813.42;1785380;79;21800;-38
2022/01/10 04:37:29;;;;;;;16.12;10.85;;;;;;;0.21;70.55;98819.34;1793620;78;20965;-39
2022/01/10 04:39:56;;;;;;;16.77;10.63;;;;;;;0.19;70.42;98822.88;1784899;78;21013;-39
2022/01/10 04:42:23;;;;;;;17.52;11.63;;;;;;;0.21;70.51;98824.14;1790664;78;21080;-38
2022/01/10 04:44:50;;;;;;;15.18;10.20;;;;;;;0.24;70.42;98823.52;1798073;78;20973;-39
2022/01/10 04:47:18;;;;;;;15.53;11.20;;;;;;;0.31;70.25;98827.09;1731697;81;21528;-39
2022/01/10 04:52:30;;;;;;;17.52;11.08;;;;;;;0.35;70.03;98834.18;1714092;83;21519;-39
2022/01/10 04:54:59;;;;;;;16.10;11.33;;;;;;;0.33;69.99;98836.38;1718390;82;21794;-40
2022/01/10 04:57:26;;;;;;;15.72;10.48;;;;;;;0.35;69.91;98844.84;1757648;81;21037;-39
2022/01/10 04:59:53;;;;;;;15.93;10.55;;;;;;;0.38;69.71;98842.92;1749534;82;21036;-40
2022/01/10 05:02:20;;;;;;;17.40;11.63;;;;;;;0.37;69.59;98848.55;1729600;80;21575;-39
2022/01/10 05:04:47;;;;;;;15.78;10.23;;;;;;;0.34;69.38;98839.81;1720221;81;21060;-39
2022/01/10 05:07:13;;;;;;;16.42;10.98;;;;;;;0.32;69.42;98849.47;1760660;80;21109;-39
2022/01/10 05:09:42;;;;;;;17.77;11.05;;;;;;;0.29;69.31;98855.38;1748158;80;21033;-39
2022/01/10 05:12:10;;;;;;;15.85;10.40;;;;;;;0.21;69.27;98855.34;1744793;81;20997;-39
2022/01/10 05:14:37;;;;;;;15.80;10.23;;;;;;;0.18;69.42;98867.41;1740770;82;21045;-39
2022/01/10 05:17:04;;;;;;;16.15;10.20;;;;;;;0.17;69.50;98871.16;1714341;82;21013;-39
2022/01/10 05:19:32;;;;;;;14.47;9.60;;;;;;;0.17;69.48;98873.82;1713953;82;21982;-39
2022/01/10 05:21:58;;;;;;;15.45;10.43;;;;;;;0.17;69.34;98871.16;1740493;82;20982;-39
2022/01/10 05:24:25;;;;;;;15.78;10.55;;;;;;;0.14;69.32;98875.77;1784454;80;21572;-39
2022/01/10 05:26:51;;;;;;;15.75;11.45;;;;;;;0.04;69.34;98873.87;1760628;80;21531;-39
2022/01/10 05:29:20;;;;;;;18.20;11.15;;;;;;;0.00;69.42;98879.79;1760044;80;21023;-39
2022/01/10 05:31:46;;;;;;;17.48;11.88;;;;;;;-0.03;69.66;98880.95;1772929;79;21140;-40
2022/01/10 05:34:18;;;;;;;15.50;10.98;;;;;;;-0.03;69.73;98888.40;1768504;79;21045;-39
2022/01/10 05:36:44;;;;;;;17.73;11.25;;;;;;;-0.10;69.75;98881.35;1769915;80;21012;-39
2022/01/10 05:39:12;;;;;;;16.60;10.93;;;;;;;-0.10;70.04;98881.92;1779785;80;21069;-40
2022/01/10 05:41:38;;;;;;;17.40;11.25;;;;;;;-0.10;70.13;98885.92;1770401;80;21057;-40
2022/01/10 05:44:05;;;;;;;17.07;11.28;;;;;;;-0.08;70.15;98891.17;1790805;80;21804;-40
2022/01/10 05:46:35;;;;;;;20.27;12.43;;;;;;;-0.07;70.27;98890.64;1787747;79;21713;-40
2022/01/10 05:49:03;;;;;;;20.43;11.60;;;;;;;-0.02;70.30;98889.19;1772095;80;21071;-40
2022/01/10 05:51:37;;;;;;;18.80;12.37;;;;;;;0.06;70.28;98894.33;1760401;80;21493;-39
2022/01/10 05:54:15;;;;;;;20.92;12.78;;;;;;;0.05;69.98;98893.55;1756650;81;21020;-39
2022/01/10 05:56:42;;;;;;;18.95;12.70;;;;;;;0.01;70.22;98900.57;1770081;79;21143;-40
2022/01/10 05:59:08;;;;;;;20.48;12.98;;;;;;;0.03;70.19;98898.41;1791355;79;20997;-39
2022/01/10 06:01:35;;;;;;;20.43;13.03;;;;;;;-0.01;70.31;98904.89;1764627;78;21013;-39
2022/01/10 06:04:04;;;;;;;21.10;12.78;;;;;;;0.04;70.28;98911.98;1766031;78;21778;-40
2022/01/10 06:06:32;;;;;;;18.62;12.15;;;;;;;-0.01;70.31;98919.55;1786079;78;21029;-39
2022/01/10 06:08:59;;;;;;;20.27;12.82;;;;;;;-0.01;70.31;98919.55;1768633;78;21131;-39
2022/01/10 06:11:26;;;;;;;23.25;13.68;;;;;;;-0.03;70.54;98930.24;1766282;78;21028;-40
2022/01/10 06:13:53;;;;;;;19.27;13.30;;;;;;;-0.04;70.50;98932.11;1787632;79;21602;-39
2022/01/10 06:16:21;;;;;;;21.90;13.62;;;;;;;-0.09;70.63;98931.43;1776345;78;20894;-39
2022/01/10 06:18:49;;;;;;;22.30;13.75;;;;;;;-0.08;70.88;98944.47;1780261;78;21045;-39
2022/01/10 06:21:16;;;;;;;22.20;13.48;;;;;;;-0.03;70.99;98943.02;1793403;77;21812;-39
2022/01/10 06:23:43;;;;;;;22.58;14.35;;;;;;;0.04;70.67;98949.29;1737140;81;20992;-39
2022/01/10 06:26:10;;;;;;;19.40;12.40;;;;;;;0.00;70.71;98949.08;1766076;81;21087;-40
2022/01/10 06:28:37;;;;;;;21.68;13.22;;;;;;;0.01;70.74;98953.86;1736146;82;20996;-39
2022/01/10 06:31:04;;;;;;;21.52;13.20;;;;;;;0.00;70.77;98953.64;1745602;80;21033;-39
2022/01/10 06:33:33;;;;;;;20.02;13.45;;;;;;;0.02;70.69;98959.44;1750243;81;21159;-39
2022/01/10 06:36:01;;;;;;;18.67;12.33;;;;;;;0.01;70.68;98955.20;1718448;82;20946;-39
2022/01/10 06:38:28;;;;;;;21.45;13.48;;;;;;;0.03;70.60;98961.03;1746015;82;21012;-39
2022/01/10 06:40:55;;;;;;;18.82;12.33;;;;;;;0.02;70.66;98962.11;1737807;82;20993;-39
2022/01/10 06:43:21;;;;;;;17.85;12.45;;;;;;;0.05;70.44;98968.16;1738205;80;21040;-39
2022/01/10 06:45:48;;;;;;;17.92;11.90;;;;;;;0.05;70.43;98972.73;1721364;83;21157;-39
2022/01/10 06:48:15;;;;;;;19.05;12.28;;;;;;;0.04;70.37;98981.27;1743886;80;21094;-39
2022/01/10 06:50:46;;;;;;;18.77;12.73;;;;;;;0.04;70.49;98977.27;1741900;80;21437;-39
2022/01/10 06:53:11;;;;;;;19.82;13.10;;;;;;;0.05;70.29;98985.48;1745850;82;21013;-39
2022/01/10 06:55:38;;;;;;;18.67;12.82;;;;;;;0.04;70.32;98989.80;1738400;81;21543;-39
2022/01/10 06:58:06;;;;;;;22.67;13.38;;;;;;;0.06;70.31;98993.73;1736640;82;21156;-39
2022/01/10 07:00:37;;;;;;;15.65;9.70;;;;;;;0.14;70.19;98994.37;1749389;80;21016;-40
2022/01/10 07:03:04;;;;;;;18.80;11.75;;;;;;;0.16;69.86;98996.72;1757632;80;20981;-39
2022/01/10 07:05:32;;;;;;;16.20;10.95;;;;;;;0.15;69.53;98995.14;1741812;82;21033;-40
2022/01/10 07:08:00;;;;;;;19.52;13.03;;;;;;;0.10;69.48;98992.04;1746636;82;21069;-39
2022/01/10 07:10:32;;;;;;;16.65;10.80;;;;;;;0.13;69.63;98993.33;1752261;80;21125;-40
2022/01/10 07:12:59;;;;;;;17.73;11.60;;;;;;;0.20;69.69;98995.82;1746844;81;21092;-39
2022/01/10 07:15:26;;;;;;;18.07;11.85;;;;;;;0.26;69.22;99005.30;1750463;82;21016;-39
2022/01/10 07:17:55;;;;;;;13.98;9.10;;;;;;;0.31;69.11;99009.18;1751532;82;21084;-39
2022/01/10 07:20:23;;;;;;;16.57;10.90;;;;;;;0.32;68.74;99006.77;1722204;82;21092;-39
2022/01/10 07:22:50;;;;;;;18.25;12.23;;;;;;;0.29;68.77;99010.58;1729520;82;21495;-40
2022/01/10 07:25:17;;;;;;;17.60;12.13;;;;;;;0.30;68.75;99014.27;1737857;82;21692;-39
2022/01/10 07:27:44;;;;;;;18.25;11.75;;;;;;;0.32;68.83;99025.43;1747155;80;21017;-40
2022/01/10 07:30:11;;;;;;;18.80;12.23;;;;;;;0.40;68.76;99022.05;1744577;82;20973;-39
2022/01/10 07:32:37;;;;;;;16.20;11.68;;;;;;;0.39;68.53;99023.13;1762453;81;21542;-39
2022/01/10 07:35:06;;;;;;;18.48;13.20;;;;;;;0.40;68.58;99029.25;1724900;81;21924;-39
2022/01/10 07:37:33;;;;;;;19.07;12.43;;;;;;;0.34;68.54;99031.23;1738821;81;20978;-39
2022/01/10 07:40:00;;;;;;;20.23;13.28;;;;;;;0.34;68.70;99028.56;1748059;82;20973;-39
2022/01/10 07:42:26;;;;;;;19.00;12.63;;;;;;;0.34;68.84;99035.77;1748833;82;20993;-39
2022/01/10 07:44:55;;;;;;;18.00;12.55;;;;;;;0.34;68.96;99037.11;1739364;82;21520;-39
2022/01/10 07:47:21;;;;;;;19.67;12.60;;;;;;;0.40;68.85;99041.25;1750382;82;21175;-39
2022/01/10 07:49:48;;;;;;;19.20;12.82;;;;;;;0.41;68.71;99042.30;1750882;82;21035;-39
2022/01/10 07:52:15;;;;;;;18.42;12.45;;;;;;;0.47;68.74;99044.84;1745545;82;20949;-39
2022/01/10 07:54:43;;;;;;;20.10;13.30;;;;;;;0.49;68.60;99050.11;1740059;82;20980;-38
2022/01/10 07:57:09;;;;;;;19.48;12.00;;;;;;;0.52;68.01;99046.86;1733321;82;21032;-39
2022/01/10 07:59:36;;;;;;;18.77;12.35;;;;;;;0.51;67.89;99053.82;1720900;83;21248;-39
2022/01/10 08:02:03;;;;;;;17.00;11.35;;;;;;;0.53;67.86;99051.66;1743270;82;21009;-38
2022/01/10 08:04:30;;;;;;;19.42;12.37;;;;;;;0.58;67.61;99053.64;1744888;80;21790;-38
2022/01/10 08:06:57;;;;;;;19.02;12.35;;;;;;;0.62;67.62;99061.31;1743106;80;21063;-38
2022/01/10 08:09:23;;;;;;;17.98;12.93;;;;;;;0.67;67.58;99055.06;1749034;81;21591;-38
2022/01/10 08:11:50;;;;;;;21.45;12.75;;;;;;;0.69;67.47;99060.88;1735300;82;21160;-38
2022/01/10 08:14:17;;;;;;;20.12;12.68;;;;;;;0.67;67.00;99066.53;1788157;77;20995;-38
2022/01/10 08:16:43;;;;;;;19.87;12.25;;;;;;;0.62;66.81;99071.19;1788694;79;20960;-38
2022/01/10 08:19:10;;;;;;;19.92;12.80;;;;;;;0.54;66.57;99068.67;1806368;77;21019;-38
2022/01/10 08:21:37;;;;;;;25.62;13.35;;;;;;;0.47;66.83;99078.98;1800778;77;21039;-38
2022/01/10 08:24:05;;;;;;;20.43;13.13;;;;;;;0.44;66.90;99081.68;1797531;79;21145;-39
2022/01/10 08:26:32;;;;;;;20.15;13.22;;;;;;;0.42;67.20;99085.20;1798235;79;21014;-38
2022/01/10 08:28:58;;;;;;;21.23;12.68;;;;;;;0.43;67.34;99086.00;1804063;79;20979;-38
2022/01/10 08:31:25;;;;;;;20.68;12.03;;;;;;;0.42;66.99;99084.41;1804077;77;21017;-38
2022/01/10 08:33:52;;;;;;;17.02;11.22;;;;;;;0.37;67.16;99104.52;1806599;77;21110;-38
2022/01/10 08:36:18;;;;;;;17.95;11.75;;;;;;;0.32;67.17;99105.41;1761183;81;21852;-37
2022/01/10 08:38:45;;;;;;;18.12;11.30;;;;;;;0.25;67.16;99106.89;1734923;81;20974;-40
2022/01/10 08:41:12;;;;;;;19.92;12.47;;;;;;;0.16;67.32;99107.34;1803484;79;20941;-39
2022/01/10 08:43:38;;;;;;;17.92;10.63;;;;;;;0.01;67.61;99109.76;1804648;79;21057;-39
2022/01/10 08:46:05;;;;;;;17.25;11.10;;;;;;;-0.10;67.80;99107.82;1804344;79;21079;-39
2022/01/10 08:48:32;;;;;;;17.50;11.93;;;;;;;-0.22;68.12;99118.73;1805357;79;21501;-39
2022/01/10 08:50:58;;;;;;;18.87;11.85;;;;;;;-0.26;68.40;99123.86;1767250;81;20935;-40
2022/01/10 08:53:25;;;;;;;18.17;11.10;;;;;;;-0.27;68.79;99126.80;1733764;82;21363;-40
2022/01/10 08:55:52;;;;;;;16.67;9.80;;;;;;;-0.24;68.60;99127.57;1765853;80;20971;-39
2022/01/10 08:58:19;;;;;;;15.83;10.60;;;;;;;-0.26;68.67;99131.05;1811406;79;21078;-39
2022/01/10 09:00:45;;;;;;;16.50;10.53;;;;;;;-0.27;68.48;99132.13;1791631;77;21113;-39
2022/01/10 09:03:12;;;;;;;15.35;10.38;;;;;;;-0.31;68.49;99131.14;1788610;79;21053;-39
2022/01/10 09:05:38;;;;;;;15.88;10.23;;;;;;;-0.34;68.55;99131.74;1807565;79;21033;-39
2022/01/10 09:08:05;;;;;;;18.77;11.18;;;;;;;-0.38;68.67;99137.38;1760025;79;21535;-39
2022/01/10 09:10:32;;;;;;;18.20;10.80;;;;;;;-0.33;68.71;99146.62;1742729;81;21523;-40
2022/01/10 09:12:59;;;;;;;16.25;10.40;;;;;;;-0.35;68.61;99143.47;1746355;81;21834;-40
2022/01/10 09:15:25;;;;;;;18.37;11.03;;;;;;;-0.40;68.68;99143.56;1738591;82;21082;-40
2022/01/10 09:17:52;;;;;;;18.62;10.88;;;;;;;-0.42;68.86;99141.17;1739394;82;21005;-39
2022/01/10 09:20:19;;;;;;;14.83;10.55;;;;;;;-0.37;68.87;99148.28;1732224;82;21542;-40
2022/01/10 09:22:45;;;;;;;14.30;10.13;;;;;;;-0.27;68.93;99146.78;1736143;82;21068;-40
2022/01/10 09:25:12;;;;;;;20.02;10.75;;;;;;;-0.18;68.62;99153.80;1741532;82;21125;-40
2022/01/10 09:27:39;;;;;;;13.55;9.55;;;;;;;-0.08;68.27;99150.17;1729591;81;21092;-40
2022/01/10 09:30:07;;;;;;;14.38;10.38;;;;;;;-0.04;67.98;99151.16;1750993;81;21019;-40
2022/01/10 09:32:34;;;;;;;16.55;10.30;;;;;;;0.01;67.69;99153.73;1718631;83;21066;-40
2022/01/10 09:35:01;;;;;;;15.60;10.08;;;;;;;0.00;67.40;99153.50;1729343;82;21108;-41
2022/01/10 09:37:27;;;;;;;16.93;10.53;;;;;;;0.05;67.31;99157.95;1728554;82;21119;-40
2022/01/10 09:39:54;;;;;;;15.65;9.95;;;;;;;0.11;67.05;99154.08;1733599;82;21060;-39
2022/01/10 09:42:21;;;;;;;15.15;9.73;;;;;;;0.14;66.99;99159.63;1715320;80;21535;-39
2022/01/10 09:44:47;;;;;;;14.85;10.00;;;;;;;0.16;66.80;99154.78;1715861;83;20973;-38
2022/01/10 09:47:14;;;;;;;15.78;10.25;;;;;;;0.15;66.93;99158.52;1733126;80;21025;-38
2022/01/10 09:49:40;;;;;;;15.43;10.38;;;;;;;0.12;66.47;99151.67;1682419;83;21091;-39
2022/01/10 09:52:07;;;;;;;15.40;10.43;;;;;;;0.05;66.75;99152.05;1721849;82;20997;-39
2022/01/10 09:54:34;;;;;;;16.60;10.88;;;;;;;0.11;66.98;99150.08;1725632;82;21481;-38
2022/01/10 09:57:01;;;;;;;13.50;10.00;;;;;;;0.17;66.92;99152.91;1714592;81;21069;-38
2022/01/10 09:59:29;;;;;;;15.55;10.82;;;;;;;0.19;66.51;99156.88;1713797;82;21523;-39
2022/01/10 10:01:55;;;;;;;15.80;10.85;;;;;;;0.16;66.68;99154.78;1714449;82;21196;-39
2022/01/10 10:04:22;;;;;;;18.25;10.58;;;;;;;0.16;66.69;99158.78;1722259;83;21022;-38
2022/01/10 10:06:48;;;;;;;16.02;10.10;;;;;;;0.14;66.71;99160.17;1718617;81;21015;-38
2022/01/10 10:09:16;;;;;;;16.60;10.63;;;;;;;0.21;66.88;99167.22;1720037;81;20985;-38
2022/01/10 10:11:47;;;;;;;19.05;11.08;;;;;;;0.26;66.75;99167.92;1722313;82;21093;-38
2022/01/10 10:14:19;;;;;;;14.75;10.50;;;;;;;0.32;66.46;99169.41;1723065;81;21689;-40
2022/01/10 10:16:50;;;;;;;;;;;;;;;-0.03;66.22;99127.42;1733609;82;21583;-41
2022/01/10 10:19:26;;;;;;;14.75;10.38;;;;;;;0.18;66.13;99175.81;1758881;80;20447;-40
2022/01/10 10:21:54;;;;;;;16.00;9.75;;;;;;;-0.05;66.55;99184.23;1736856;82;21007;-40
2022/01/10 10:24:21;;;;;;;16.23;9.95;;;;;;;-0.15;66.85;99184.41;1730026;82;21066;-40
2022/01/10 10:26:49;;;;;;;15.35;9.48;;;;;;;-0.19;66.81;99186.06;1733121;82;21142;-39
2022/01/10 10:29:17;;;;;;;15.60;9.55;;;;;;;-0.19;66.95;99195.38;1760633;81;20972;-40
2022/01/10 10:31:51;;;;;;;18.40;11.12;;;;;;;-0.19;66.90;99196.17;1775609;80;21015;-40
2022/01/10 10:34:27;;;;;;;19.25;10.05;;;;;;;-0.21;66.40;99197.56;1768325;80;20924;-46
2022/01/10 10:37:10;;;;;;;16.27;10.72;;;;;;;-0.20;66.66;99199.16;1771937;80;21542;-41
2022/01/10 10:39:40;;;;;;;15.90;9.68;;;;;;;-0.21;66.54;99197.56;1742677;82;21105;-41
2022/01/10 10:42:12;;;;;;;16.65;9.85;;;;;;;-0.19;66.59;99206.04;1746248;79;21082;-42
2022/01/10 10:44:41;;;;;;;14.85;9.68;;;;;;;-0.21;66.53;99211.68;1735823;80;21063;-44
2022/01/10 10:47:08;;;;;;;14.38;9.88;;;;;;;-0.23;66.46;99208.50;1771278;79;21104;-42
2022/01/10 10:49:39;;;;;;;16.05;10.15;;;;;;;-0.25;66.80;99216.55;1747851;79;20991;-41
2022/01/10 10:52:07;;;;;;;16.67;10.78;;;;;;;-0.23;66.79;99223.16;1738187;80;21123;-42
2022/01/10 10:54:35;;;;;;;14.98;10.03;;;;;;;-0.25;66.74;99216.55;1759498;81;21522;-42
2022/01/10 10:57:04;;;;;;;15.00;9.55;;;;;;;-0.27;66.66;99221.37;1760976;79;21530;-42
2022/01/10 10:59:35;;;;;;;15.48;9.78;;;;;;;-0.32;65.92;99220.12;1749127;79;21026;-42
2022/01/10 11:01:59;;;;;;;15.38;9.50;;;;;;;-0.35;65.85;99220.71;1746501;81;21103;-42
2022/01/10 11:04:26;;;;;;;14.85;9.43;;;;;;;-0.45;65.39;99227.78;1759340;81;21967;-42
2022/01/10 11:06:53;;;;;;;12.93;9.40;;;;;;;-0.51;65.54;99231.59;1752312;79;20974;-42
2022/01/10 11:09:19;;;;;;;13.98;8.63;;;;;;;-0.54;66.01;99237.51;1758433;81;21048;-42
2022/01/10 11:11:47;;;;;;;11.55;8.33;;;;;;;-0.46;65.86;99235.52;1708271;79;21039;-42
2022/01/10 11:14:17;;;;;;;15.35;8.80;;;;;;;-0.47;65.64;99238.45;1749166;80;21645;-42
2022/01/10 11:16:46;;;;;;;13.13;8.55;;;;;;;-0.46;65.59;99232.05;1733605;81;21766;-42
2022/01/10 11:19:16;;;;;;;14.05;8.15;;;;;;;-0.50;65.90;99239.05;1742541;82;20993;-42
2022/01/10 11:21:47;;;;;;;14.23;8.95;;;;;;;-0.47;65.81;99237.92;1745417;80;21001;-42
2022/01/10 11:24:36;;;;;;;12.00;7.92;;;;;;;-0.47;65.62;99240.58;1744382;81;21053;-42
2022/01/10 11:27:05;;;;;;;11.88;8.00;;;;;;;-0.45;65.52;99242.42;1733195;80;21047;-42
2022/01/10 11:29:38;;;;;;;11.93;8.10;;;;;;;-0.47;65.30;99245.11;1672063;82;21340;-42
2022/01/10 11:32:06;;;;;;;11.93;9.08;;;;;;;-0.49;65.42;99237.44;1744531;82;20998;-42
2022/01/10 11:34:33;;;;;;;13.78;9.43;;;;;;;-0.51;65.66;99242.78;1707080;82;21033;-41
2022/01/10 11:37:01;;;;;;;14.33;8.75;;;;;;;-0.45;65.46;99250.42;1742463;81;20985;-42
2022/01/10 11:39:36;;;;;;;12.85;9.00;;;;;;;-0.38;65.25;99242.58;1686640;80;21595;-42
2022/01/10 11:42:17;;;;;;;12.82;8.78;;;;;;;-0.40;65.09;99242.09;1743025;80;21130;-42
2022/01/10 11:45:09;;;;;;;15.13;9.28;;;;;;;-0.46;64.70;99242.17;1737390;82;21540;-42
2022/01/10 11:48:06;;;;;;;14.93;8.65;;;;;;;-0.56;65.02;99246.31;1737751;82;20981;-42